createdAt,value
2023-03-28T00:02:08.009Z,93.88
2023-03-28T00:04:34.669Z,95.78
2023-03-28T00:07:01.310Z,94.95
2023-03-28T00:09:27.988Z,94.95
2023-03-28T00:11:54.570Z,94.93
2023-03-28T00:14:21.450Z,97.07
2023-03-28T00:16:48.176Z,93.72
2023-03-28T00:19:19.607Z,97.25
2023-03-28T00:21:48.870Z,94.65
2023-03-28T00:24:18.743Z,102.40
2023-03-28T00:26:45.901Z,97.35
2023-03-28T00:29:21.178Z,94.72
2023-03-28T00:31:49.571Z,99.72
2023-03-28T00:34:16.534Z,94.30
2023-03-28T00:36:43.204Z,96.68
2023-03-28T00:39:10.502Z,94.78
2023-03-28T00:41:41.505Z,98.03
2023-03-28T00:44:39.343Z,95.60
2023-03-28T00:47:30.798Z,97.05
2023-03-28T00:50:03.464Z,99.80
2023-03-28T00:52:39.917Z,101.93
2023-03-28T00:55:12.319Z,102.78
2023-03-28T00:57:40.062Z,96.05
2023-03-28T01:00:12.264Z,99.80
2023-03-28T01:02:45.569Z,98.10
2023-03-28T01:05:13.496Z,97.43
2023-03-28T01:07:46.051Z,97.05
2023-03-28T01:10:13.472Z,94.80
2023-03-28T01:12:42.727Z,93.70
2023-03-28T01:15:10.585Z,94.85
2023-03-28T01:17:37.813Z,95.13
2023-03-28T01:20:27.590Z,95.88
2023-03-28T01:23:23.581Z,105.18
2023-03-28T01:26:20.412Z,93.18
2023-03-28T01:28:58.941Z,95.03
2023-03-28T01:31:43.916Z,96.65
2023-03-28T01:34:44.775Z,96.60
2023-03-28T01:37:17.181Z,102.45
2023-03-28T01:40:23.159Z,97.07
2023-03-28T01:43:04.988Z,144.05
2023-03-28T01:45:51.021Z,102.85
2023-03-28T01:48:32.718Z,201.95
2023-03-28T01:51:29.548Z,270.35
2023-03-28T01:54:19.297Z,162.57
2023-03-28T01:56:51.747Z,115.32
2023-03-28T01:59:26.671Z,99.22
2023-03-28T02:02:01.266Z,97.82
2023-03-28T02:04:30.244Z,98.53
2023-03-28T02:06:58.116Z,95.60
2023-03-28T02:09:27.097Z,93.80
2023-03-28T02:11:59.665Z,96.30
2023-03-28T02:14:29.915Z,94.88
2023-03-28T02:17:04.538Z,93.97
2023-03-28T02:19:33.834Z,97.78
2023-03-28T02:22:12.138Z,95.53
2023-03-28T02:24:38.766Z,95.53
2023-03-28T02:27:08.409Z,96.53
2023-03-28T02:29:37.457Z,94.57
2023-03-28T02:32:04.262Z,96.30
2023-03-28T02:34:31.527Z,94.97
2023-03-28T02:37:13.203Z,95.32
2023-03-28T02:39:44.453Z,106.60
2023-03-28T02:42:25.799Z,96.88
2023-03-28T02:45:01.312Z,94.88
2023-03-28T02:47:57.087Z,104.00
2023-03-28T02:50:27.310Z,96.82
2023-03-28T02:53:05.133Z,93.40
2023-03-28T02:55:41.011Z,97.20
2023-03-28T02:58:22.884Z,106.65
2023-03-28T03:00:50.208Z,95.43
2023-03-28T03:03:18.051Z,97.00
2023-03-28T03:05:44.715Z,97.13
2023-03-28T03:08:11.795Z,108.35
2023-03-28T03:10:38.430Z,94.72
2023-03-28T03:13:05.355Z,101.07
2023-03-28T03:15:32.099Z,98.72
2023-03-28T03:17:59.541Z,95.78
2023-03-28T03:20:27.838Z,99.63
2023-03-28T03:22:55.461Z,95.63
2023-03-28T03:25:22.253Z,99.93
2023-03-28T03:27:48.858Z,100.38
2023-03-28T03:30:15.532Z,95.50
2023-03-28T03:32:44.071Z,96.13
2023-03-28T03:35:11.379Z,94.75
2023-03-28T03:37:38.154Z,98.80
2023-03-28T03:40:05.769Z,98.10
2023-03-28T03:42:33.262Z,95.35
2023-03-28T03:44:59.911Z,97.75
2023-03-28T03:47:26.846Z,96.05
2023-03-28T03:49:53.563Z,96.03
2023-03-28T03:52:20.179Z,97.30
2023-03-28T03:54:46.824Z,95.03
2023-03-28T03:57:13.567Z,94.95
2023-03-28T03:59:40.245Z,94.35
2023-03-28T04:02:06.933Z,95.93
2023-03-28T04:04:33.687Z,96.38
2023-03-28T04:07:02.289Z,98.05
2023-03-28T04:09:28.932Z,93.90
2023-03-28T04:11:55.932Z,95.68
2023-03-28T04:14:22.544Z,97.63
2023-03-28T04:16:53.805Z,95.43
2023-03-28T04:19:20.646Z,96.78
2023-03-28T04:21:48.824Z,93.32
2023-03-28T04:24:16.274Z,98.07
2023-03-28T04:26:45.886Z,96.70
2023-03-28T04:29:12.914Z,96.05
2023-03-28T04:31:39.852Z,94.72
2023-03-28T04:34:07.152Z,94.72
2023-03-28T04:36:33.831Z,95.43
2023-03-28T04:39:02.882Z,115.70
2023-03-28T04:41:32.152Z,98.63
2023-03-28T04:43:58.941Z,96.60
2023-03-28T04:46:25.759Z,96.95
2023-03-28T04:48:56.496Z,96.68
2023-03-28T04:51:24.924Z,96.78
2023-03-28T04:53:51.528Z,99.25
2023-03-28T04:56:18.287Z,95.93
2023-03-28T04:58:44.908Z,94.40
2023-03-28T05:01:11.710Z,95.47
2023-03-28T05:03:38.435Z,95.75
2023-03-28T05:06:06.515Z,95.55
2023-03-28T05:08:33.216Z,100.60
2023-03-28T05:11:00.162Z,99.43
2023-03-28T05:13:27.157Z,96.30
2023-03-28T05:15:53.900Z,95.82
2023-03-28T05:18:20.551Z,98.95
2023-03-28T05:20:47.184Z,96.05
2023-03-28T05:23:13.830Z,97.15
2023-03-28T05:25:40.525Z,102.93
2023-03-28T05:28:07.332Z,95.63
2023-03-28T05:30:34.135Z,94.68
2023-03-28T05:33:01.163Z,100.50
2023-03-28T05:35:27.854Z,96.93
2023-03-28T05:37:54.485Z,108.22
2023-03-28T05:40:21.213Z,98.80
2023-03-28T05:42:47.868Z,98.15
2023-03-28T05:45:14.994Z,100.82
2023-03-28T05:47:41.662Z,94.25
2023-03-28T05:50:09.224Z,102.05
2023-03-28T05:52:35.903Z,110.88
2023-03-28T05:55:02.584Z,98.97
2023-03-28T05:57:29.194Z,96.95
2023-03-28T05:59:55.881Z,99.93
2023-03-28T06:02:23.721Z,95.22
2023-03-28T06:04:53.447Z,93.22
2023-03-28T06:07:28.150Z,94.45
2023-03-28T06:09:58.480Z,94.53
2023-03-28T06:12:25.285Z,97.43
2023-03-28T06:14:51.885Z,94.72
2023-03-28T06:17:18.597Z,94.75
2023-03-28T06:19:45.258Z,92.90
2023-03-28T06:22:11.930Z,97.47
2023-03-28T06:24:38.546Z,96.75
2023-03-28T06:27:05.651Z,99.47
2023-03-28T06:29:32.258Z,92.38
2023-03-28T06:31:58.957Z,94.50
2023-03-28T06:34:26.082Z,94.00
2023-03-28T06:36:52.798Z,96.90
2023-03-28T06:39:19.409Z,94.75
2023-03-28T06:41:46.075Z,96.10
2023-03-28T06:44:12.703Z,91.75
2023-03-28T06:46:39.388Z,92.70
2023-03-28T06:49:06.594Z,96.63
2023-03-28T06:51:33.323Z,98.25
2023-03-28T06:54:00.221Z,92.60
2023-03-28T06:56:26.890Z,94.65
2023-03-28T06:58:53.520Z,93.53
2023-03-28T07:01:20.191Z,102.35
2023-03-28T07:03:48.140Z,96.05
2023-03-28T07:06:15.959Z,92.60
2023-03-28T07:08:42.637Z,93.15
2023-03-28T07:11:09.286Z,93.28
2023-03-28T07:13:36.218Z,96.47
2023-03-28T07:16:08.696Z,92.57
2023-03-28T07:18:35.479Z,92.47
2023-03-28T07:21:17.455Z,99.40
2023-03-28T07:23:47.202Z,93.03
2023-03-28T07:26:15.409Z,92.43
2023-03-28T07:28:42.366Z,94.32
2023-03-28T07:31:09.569Z,96.63
2023-03-28T07:33:38.364Z,96.68
2023-03-28T07:36:12.253Z,89.70
2023-03-28T07:38:39.129Z,92.22
2023-03-28T07:41:06.204Z,94.15
2023-03-28T07:43:32.995Z,87.88
2023-03-28T07:46:06.398Z,93.85
2023-03-28T07:48:34.931Z,87.30
2023-03-28T07:51:02.001Z,89.00
2023-03-28T07:53:29.550Z,92.32
2023-03-28T07:55:56.500Z,90.05
2023-03-28T07:58:23.795Z,90.35
2023-03-28T08:00:50.904Z,91.05
2023-03-28T08:03:18.814Z,89.30
2023-03-28T08:05:51.808Z,87.43
2023-03-28T08:08:20.270Z,89.15
2023-03-28T08:10:50.953Z,87.60
2023-03-28T08:13:18.531Z,93.43
2023-03-28T08:15:45.191Z,90.00
2023-03-28T08:18:12.964Z,88.93
2023-03-28T08:20:39.635Z,88.65
2023-03-28T08:23:07.375Z,86.32
2023-03-28T08:25:33.999Z,89.53
2023-03-28T08:28:00.597Z,86.50
2023-03-28T08:30:27.446Z,92.13
2023-03-28T08:32:54.084Z,92.20
2023-03-28T08:35:20.771Z,90.88
2023-03-28T08:37:48.285Z,91.05
2023-03-28T08:40:18.913Z,92.35
2023-03-28T08:43:08.332Z,86.95
2023-03-28T08:45:50.258Z,87.13
2023-03-28T08:48:38.007Z,87.28
2023-03-28T08:51:27.852Z,87.90
2023-03-28T08:54:17.523Z,85.40
2023-03-28T08:56:53.249Z,85.40
2023-03-28T08:59:43.970Z,87.67
2023-03-28T09:02:18.484Z,88.25
2023-03-28T09:04:45.567Z,85.00
2023-03-28T09:07:51.767Z,91.82
2023-03-28T09:10:42.841Z,87.75
2023-03-28T09:13:24.656Z,88.45
2023-03-28T09:16:12.389Z,89.97
2023-03-28T09:18:54.695Z,90.78
2023-03-28T09:21:31.330Z,92.18
2023-03-28T09:24:12.224Z,97.38
2023-03-28T09:26:53.826Z,88.82
2023-03-28T09:29:25.125Z,92.22
2023-03-28T09:32:01.665Z,87.90
2023-03-28T09:34:38.218Z,85.80
2023-03-28T09:37:27.779Z,92.95
2023-03-28T09:39:56.958Z,86.30
2023-03-28T09:42:30.112Z,87.45
2023-03-28T09:45:25.928Z,88.45
2023-03-28T09:47:52.754Z,93.18
2023-03-28T09:50:20.005Z,90.50
2023-03-28T09:52:50.291Z,88.88
2023-03-28T09:55:23.322Z,89.68
2023-03-28T09:58:03.842Z,88.07
2023-03-28T10:00:35.482Z,88.10
2023-03-28T10:03:02.358Z,89.90
2023-03-28T10:05:38.538Z,90.40
2023-03-28T10:08:20.768Z,93.32
2023-03-28T10:10:58.907Z,93.57
2023-03-28T10:13:26.258Z,90.78
2023-03-28T10:15:56.892Z,94.70
2023-03-28T10:18:27.780Z,91.25
2023-03-28T10:20:54.718Z,90.43
2023-03-28T10:23:23.629Z,91.28
2023-03-28T10:25:53.089Z,94.47
2023-03-28T10:28:31.803Z,90.45
2023-03-28T10:31:01.766Z,89.63
2023-03-28T10:33:36.003Z,89.22
2023-03-28T10:36:09.601Z,92.10
2023-03-28T10:38:46.511Z,90.00
2023-03-28T10:41:22.712Z,90.00
2023-03-28T10:43:50.759Z,97.18
2023-03-28T10:46:24.132Z,92.22
2023-03-28T10:49:17.006Z,91.28
2023-03-28T10:51:45.969Z,88.72
2023-03-28T10:54:16.180Z,92.78
2023-03-28T10:56:57.664Z,90.05
2023-03-28T10:59:32.870Z,89.75
2023-03-28T11:02:30.660Z,87.55
2023-03-28T11:05:28.707Z,87.07
2023-03-28T11:08:12.954Z,91.47
2023-03-28T11:10:44.468Z,89.20
2023-03-28T11:13:23.824Z,86.70
2023-03-28T11:15:59.449Z,92.82
2023-03-28T11:18:46.917Z,89.22
2023-03-28T11:21:22.309Z,91.05
2023-03-28T11:24:00.259Z,89.40
2023-03-28T11:26:44.430Z,90.72
2023-03-28T11:29:42.412Z,88.40
2023-03-28T11:32:42.522Z,90.15
2023-03-28T11:35:47.533Z,89.28
2023-03-28T11:38:27.134Z,87.75
2023-03-28T11:41:04.129Z,87.93
2023-03-28T11:43:52.904Z,91.72
2023-03-28T11:46:32.897Z,88.65
2023-03-28T11:49:09.003Z,92.55
2023-03-28T11:51:42.902Z,92.72
2023-03-28T11:54:18.738Z,89.57
2023-03-28T11:57:19.748Z,90.90
2023-03-28T12:00:33.678Z,96.05
2023-03-28T12:03:16.208Z,91.22
2023-03-28T12:05:49.290Z,89.18
2023-03-28T12:08:47.523Z,91.65
2023-03-28T12:11:31.839Z,90.55
2023-03-28T12:14:16.191Z,90.40
2023-03-28T12:16:48.003Z,88.20
2023-03-28T12:19:30.428Z,90.68
2023-03-28T12:22:04.183Z,91.18
2023-03-28T12:24:44.547Z,86.97
2023-03-28T12:27:23.552Z,87.68
2023-03-28T12:30:21.115Z,87.05
2023-03-28T12:33:01.530Z,90.18
2023-03-28T12:35:53.161Z,90.95
2023-03-28T12:38:45.578Z,93.20
2023-03-28T12:41:19.079Z,91.00
2023-03-28T12:44:06.185Z,89.72
2023-03-28T12:46:48.324Z,89.97
2023-03-28T12:49:41.514Z,90.22
2023-03-28T12:52:16.994Z,94.43
2023-03-28T12:55:04.783Z,89.57
2023-03-28T12:57:40.826Z,91.60
2023-03-28T13:00:16.484Z,92.05
2023-03-28T13:03:07.981Z,94.97
2023-03-28T13:06:09.172Z,92.72
2023-03-28T13:09:13.269Z,89.80
2023-03-28T13:12:01.992Z,89.07
2023-03-28T13:14:34.325Z,89.85
2023-03-28T13:17:03.076Z,93.63
2023-03-28T13:20:11.286Z,92.65
2023-03-28T13:22:58.569Z,90.10
2023-03-28T13:25:29.384Z,88.95
2023-03-28T13:28:12.429Z,92.05
2023-03-28T13:30:44.461Z,91.75
2023-03-28T13:33:13.897Z,88.22
2023-03-28T13:35:40.881Z,92.90
2023-03-28T13:38:15.422Z,89.47
2023-03-28T13:41:00.537Z,90.78
2023-03-28T13:43:54.641Z,89.40
2023-03-28T13:46:30.885Z,90.25
2023-03-28T13:49:11.104Z,90.90
2023-03-28T13:51:44.746Z,93.75
2023-03-28T13:54:11.855Z,89.63
2023-03-28T13:56:43.329Z,91.60
2023-03-28T13:59:17.902Z,89.32
2023-03-28T14:01:46.629Z,90.07
2023-03-28T14:04:29.876Z,89.22
2023-03-28T14:06:57.179Z,88.97
2023-03-28T14:09:34.753Z,93.13
2023-03-28T14:12:12.814Z,89.45
2023-03-28T14:14:51.373Z,94.68
2023-03-28T14:17:22.791Z,94.10
2023-03-28T14:20:01.425Z,91.45
2023-03-28T14:22:30.434Z,90.97
2023-03-28T14:25:07.273Z,96.43
2023-03-28T14:27:39.573Z,91.38
2023-03-28T14:30:26.046Z,95.65
2023-03-28T14:33:00.454Z,91.28
2023-03-28T14:35:32.457Z,95.75
2023-03-28T14:38:01.300Z,92.88
2023-03-28T14:40:27.937Z,91.78
2023-03-28T14:42:59.269Z,94.15
2023-03-28T14:45:26.957Z,97.28
2023-03-28T14:47:56.155Z,91.07
2023-03-28T14:50:25.404Z,92.15
2023-03-28T14:52:52.074Z,91.57
2023-03-28T14:55:22.227Z,92.63
2023-03-28T14:57:52.146Z,96.35
2023-03-28T15:00:26.380Z,90.43
2023-03-28T15:02:53.745Z,93.32
2023-03-28T15:05:22.281Z,94.03
2023-03-28T15:08:01.955Z,95.15
2023-03-28T15:10:29.665Z,89.75
2023-03-28T15:13:13.883Z,91.97
2023-03-28T15:15:46.141Z,92.90
2023-03-28T15:18:17.618Z,93.65
2023-03-28T15:20:49.450Z,92.50
2023-03-28T15:23:22.330Z,90.80
2023-03-28T15:25:49.007Z,90.97
2023-03-28T15:28:18.089Z,94.80
2023-03-28T15:30:46.850Z,94.38
2023-03-28T15:33:22.593Z,93.05
2023-03-28T15:35:52.537Z,90.95
2023-03-28T15:38:27.761Z,95.72
2023-03-28T15:41:27.880Z,90.53
2023-03-28T15:43:54.466Z,95.00
2023-03-28T15:46:22.633Z,94.60
2023-03-28T15:48:49.578Z,93.25
2023-03-28T15:51:18.060Z,93.30
2023-03-28T15:53:50.377Z,91.78
2023-03-28T15:56:41.144Z,94.07
2023-03-28T15:59:17.515Z,93.25
2023-03-28T16:01:44.406Z,92.25
2023-03-28T16:04:21.226Z,93.07
2023-03-28T16:06:48.314Z,93.43
2023-03-28T16:09:22.302Z,90.70
2023-03-28T16:11:59.364Z,89.75
2023-03-28T16:14:26.384Z,93.00
2023-03-28T16:16:54.697Z,91.28
2023-03-28T16:19:27.481Z,93.50
2023-03-28T16:21:54.297Z,91.82
2023-03-28T16:24:21.396Z,92.75
2023-03-28T16:26:48.454Z,91.15
2023-03-28T16:29:15.257Z,91.38
2023-03-28T16:31:42.095Z,90.35
2023-03-28T16:34:10.153Z,90.13
2023-03-28T16:36:37.837Z,91.45
2023-03-28T16:39:06.254Z,97.35
2023-03-28T16:41:32.898Z,96.28
2023-03-28T16:43:59.719Z,92.65
2023-03-28T16:46:26.513Z,96.97
2023-03-28T16:48:53.203Z,91.80
2023-03-28T16:51:19.889Z,96.05
2023-03-28T16:53:46.561Z,89.97
2023-03-28T16:56:15.040Z,94.05
2023-03-28T16:58:42.044Z,93.07
2023-03-28T17:01:11.608Z,90.95
2023-03-28T17:03:38.475Z,97.15
2023-03-28T17:06:09.585Z,98.07
2023-03-28T17:08:36.348Z,92.90
2023-03-28T17:11:09.319Z,92.07
2023-03-28T17:13:37.314Z,90.38
2023-03-28T17:16:04.895Z,91.90
2023-03-28T17:18:31.792Z,104.15
2023-03-28T17:21:09.862Z,95.25
2023-03-28T17:23:38.015Z,91.78
2023-03-28T17:26:07.884Z,91.40
2023-03-28T17:28:36.892Z,97.47
2023-03-28T17:31:08.053Z,93.90
2023-03-28T17:33:34.953Z,96.30
2023-03-28T17:36:14.211Z,91.22
2023-03-28T17:38:40.896Z,97.60
2023-03-28T17:41:09.022Z,93.43
2023-03-28T17:43:35.766Z,91.63
2023-03-28T17:46:03.070Z,90.53
2023-03-28T17:48:29.948Z,93.63
2023-03-28T17:50:56.564Z,90.70
2023-03-28T17:53:23.218Z,91.63
2023-03-28T17:55:49.893Z,90.60
2023-03-28T17:58:16.533Z,92.60
2023-03-28T18:00:43.157Z,91.93
2023-03-28T18:03:10.679Z,90.72
2023-03-28T18:05:37.296Z,91.60
2023-03-28T18:08:04.211Z,93.82
2023-03-28T18:10:31.625Z,92.88
2023-03-28T18:12:58.305Z,90.90
2023-03-28T18:15:24.961Z,91.75
2023-03-28T18:17:51.969Z,92.72
2023-03-28T18:20:18.835Z,90.43
2023-03-28T18:22:46.263Z,91.32
2023-03-28T18:25:12.890Z,96.43
2023-03-28T18:27:39.645Z,103.32
2023-03-28T18:30:08.250Z,91.97
2023-03-28T18:32:36.262Z,92.82
2023-03-28T18:35:06.923Z,91.97
2023-03-28T18:37:34.188Z,91.22
2023-03-28T18:40:01.828Z,90.88
2023-03-28T18:42:30.161Z,91.72
2023-03-28T18:44:57.113Z,91.07
2023-03-28T18:47:23.763Z,97.07
2023-03-28T18:49:50.721Z,92.15
2023-03-28T18:52:17.332Z,94.05
2023-03-28T18:54:46.471Z,89.90
2023-03-28T18:57:13.250Z,91.93
2023-03-28T18:59:40.419Z,92.40
2023-03-28T19:02:13.944Z,90.43
2023-03-28T19:04:40.660Z,91.65
2023-03-28T19:07:08.176Z,91.97
2023-03-28T19:09:34.973Z,91.22
2023-03-28T19:14:35.466Z,92.18
2023-03-28T19:17:02.476Z,91.80
2023-03-28T19:19:29.176Z,91.30
2023-03-28T19:21:55.952Z,93.20
2023-03-28T19:24:23.356Z,96.43
2023-03-28T19:26:50.243Z,91.47
2023-03-28T19:29:16.969Z,91.65
2023-03-28T19:31:43.806Z,96.43
2023-03-28T19:34:16.922Z,94.32
2023-03-28T19:36:43.595Z,94.20
2023-03-28T19:39:10.605Z,91.05
2023-03-28T19:41:37.228Z,90.78
2023-03-28T19:44:04.196Z,93.35
2023-03-28T19:46:33.268Z,96.55
2023-03-28T19:49:03.535Z,99.63
2023-03-28T19:51:30.223Z,92.10
2023-03-28T19:53:56.934Z,93.65
2023-03-28T19:56:23.669Z,93.15
2023-03-28T19:58:52.214Z,94.10
2023-03-28T20:01:19.652Z,92.38
2023-03-28T20:03:49.369Z,92.03
2023-03-28T20:06:16.932Z,92.03
2023-03-28T20:08:43.808Z,95.10
2023-03-28T20:11:12.617Z,94.75
2023-03-28T20:13:40.088Z,94.13
2023-03-28T20:16:08.619Z,94.32
2023-03-28T20:18:36.224Z,93.68
2023-03-28T20:21:05.518Z,94.80
2023-03-28T20:23:33.161Z,92.38
2023-03-28T20:26:01.587Z,95.30
2023-03-28T20:28:32.548Z,94.10
2023-03-28T20:30:59.451Z,95.40
2023-03-28T20:33:26.316Z,92.90
2023-03-28T20:35:57.521Z,91.60
2023-03-28T20:38:25.315Z,92.07
2023-03-28T20:40:52.029Z,95.10
2023-03-28T20:43:22.728Z,94.85
2023-03-28T20:45:53.967Z,91.75
2023-03-28T20:48:34.939Z,93.88
2023-03-28T20:51:17.448Z,92.95
2023-03-28T20:53:47.578Z,91.70
2023-03-28T20:56:14.510Z,96.05
2023-03-28T20:58:42.698Z,94.30
2023-03-28T21:01:12.059Z,91.88
2023-03-28T21:03:49.711Z,92.70
2023-03-28T21:06:19.408Z,92.20
2023-03-28T21:08:48.193Z,91.85
2023-03-28T21:11:16.781Z,92.00
2023-03-28T21:13:43.608Z,90.43
2023-03-28T21:16:11.844Z,91.22
2023-03-28T21:18:38.525Z,90.85
2023-03-28T21:21:07.286Z,93.13
2023-03-28T21:23:38.872Z,92.88
2023-03-28T21:26:07.870Z,91.43
2023-03-28T21:28:35.483Z,92.43
2023-03-28T21:31:08.966Z,90.82
2023-03-28T21:33:37.100Z,92.75
2023-03-28T21:36:07.167Z,92.40
2023-03-28T21:38:34.666Z,94.25
2023-03-28T21:41:01.861Z,92.13
2023-03-28T21:43:28.704Z,91.22
2023-03-28T21:45:55.442Z,91.88
2023-03-28T21:48:22.167Z,91.20
2023-03-28T21:50:53.677Z,92.13
2023-03-28T21:53:21.531Z,92.75
2023-03-28T21:55:48.271Z,91.10
2023-03-28T21:58:14.862Z,92.55
2023-03-28T22:00:41.834Z,91.13
2023-03-28T22:03:08.694Z,91.88
2023-03-28T22:05:42.504Z,90.75
2023-03-28T22:08:12.282Z,91.43
2023-03-28T22:10:46.573Z,92.00
2023-03-28T22:13:13.944Z,93.30
2023-03-28T22:15:41.416Z,92.88
2023-03-28T22:18:09.319Z,90.18
2023-03-28T22:20:38.152Z,92.88
2023-03-28T22:23:05.949Z,96.72
2023-03-28T22:25:38.072Z,96.38
2023-03-28T22:28:07.322Z,95.28
2023-03-28T22:30:35.877Z,93.57
2023-03-28T22:33:03.876Z,91.70
2023-03-28T22:35:32.221Z,92.03
2023-03-28T22:37:59.768Z,93.75
2023-03-28T22:40:26.686Z,90.82
2023-03-28T22:42:54.115Z,90.97
2023-03-28T22:45:26.448Z,92.18
2023-03-28T22:47:53.873Z,91.82
2023-03-28T22:50:22.013Z,91.82
2023-03-28T22:52:52.875Z,92.60
2023-03-28T22:55:22.189Z,91.72
2023-03-28T22:57:51.517Z,90.93
2023-03-28T23:00:18.791Z,92.95
2023-03-28T23:02:46.603Z,90.97
2023-03-28T23:05:13.596Z,91.75
2023-03-28T23:07:41.464Z,90.82
2023-03-28T23:10:14.371Z,93.47
2023-03-28T23:12:42.485Z,90.93
2023-03-28T23:15:09.969Z,90.88
2023-03-28T23:17:36.877Z,91.75
2023-03-28T23:20:12.664Z,90.57
2023-03-28T23:22:41.013Z,94.93
2023-03-28T23:25:08.541Z,93.47
2023-03-28T23:27:35.508Z,92.10
2023-03-28T23:30:02.391Z,90.72
2023-03-28T23:32:29.123Z,93.78
2023-03-28T23:34:55.898Z,91.70
2023-03-28T23:37:26.065Z,95.18
2023-03-28T23:39:53.822Z,92.97
2023-03-28T23:42:21.439Z,90.72
2023-03-28T23:44:48.136Z,92.35
2023-03-28T23:47:15.311Z,91.93
2023-03-28T23:49:42.591Z,90.07
2023-03-28T23:52:12.624Z,92.88
2023-03-28T23:54:39.968Z,90.32
2023-03-28T23:57:07.315Z,92.45
2023-03-28T23:59:34.393Z,91.85
